createdAt,value
2019-04-22T00:00:32.816Z,95.90
2019-04-22T00:03:03.055Z,94.00
2019-04-22T00:05:51.233Z,93.60
2019-04-22T00:08:25.035Z,96.00
2019-04-22T00:10:54.025Z,93.90
2019-04-22T00:13:26.202Z,95.30
2019-04-22T00:15:47.842Z,95.60
2019-04-22T00:18:30.485Z,95.70
2019-04-22T00:20:58.026Z,96.40
2019-04-22T00:23:25.663Z,96.80
2019-04-22T00:26:01.665Z,96.60
2019-04-22T00:28:41.176Z,95.90
2019-04-22T00:31:09.967Z,94.80
2019-04-22T00:33:31.947Z,97.00
2019-04-22T00:36:08.728Z,96.00
2019-04-22T00:38:38.710Z,95.20
2019-04-22T00:41:08.217Z,96.30
2019-04-22T00:43:45.803Z,96.40
2019-04-22T00:46:15.638Z,96.80
2019-04-22T00:48:44.546Z,97.00
2019-04-22T00:54:02.052Z,99.50
2019-04-22T00:56:28.227Z,97.30
2019-04-22T00:58:59.201Z,99.10
2019-04-22T01:01:32.193Z,98.80
2019-04-22T01:04:04.335Z,99.90
2019-04-22T01:06:44.538Z,99.90
2019-04-22T01:11:33.650Z,99.90
2019-04-22T01:14:13.081Z,99.10
2019-04-22T01:16:42.693Z,99.90
2019-04-22T01:19:16.132Z,99.80
2019-04-22T01:24:17.535Z,99.20
2019-04-22T01:26:43.580Z,96.50
2019-04-22T01:29:10.996Z,99.90
2019-04-22T01:31:34.067Z,98.40
2019-04-22T01:34:10.315Z,96.60
2019-04-22T01:36:47.426Z,97.70
2019-04-22T01:39:25.076Z,99.30
2019-04-22T01:42:03.894Z,99.50
2019-04-22T01:44:31.368Z,99.60
2019-04-22T01:47:00.244Z,99.90
2019-04-22T01:49:27.313Z,99.90
2019-04-22T01:51:58.673Z,99.90
2019-04-22T01:54:29.745Z,99.90
2019-04-22T01:59:20.114Z,99.90
2019-04-22T02:01:55.162Z,99.90
2019-04-22T02:04:35.074Z,99.90
2019-04-22T02:06:59.180Z,99.90
2019-04-22T02:09:31.231Z,99.90
2019-04-22T02:12:11.177Z,99.90
2019-04-22T02:14:39.915Z,99.90
2019-04-22T02:19:48.146Z,99.90
2019-04-22T02:22:07.054Z,99.90
2019-04-22T02:24:47.069Z,99.90
2019-04-22T02:27:17.707Z,99.90
2019-04-22T02:32:28.059Z,99.90
2019-04-22T02:35:01.258Z,99.90
2019-04-22T02:37:18.758Z,99.90
2019-04-22T02:39:57.297Z,99.90
2019-04-22T02:42:16.436Z,99.90
2019-04-22T02:45:20.878Z,99.90
2019-04-22T02:47:42.275Z,99.90
2019-04-22T02:50:09.187Z,99.90
2019-04-22T02:53:01.313Z,99.90
2019-04-22T02:55:32.991Z,99.90
2019-04-22T02:57:47.087Z,99.90
2019-04-22T03:00:21.560Z,99.90
2019-04-22T03:03:03.722Z,99.90
2019-04-22T03:05:21.980Z,99.90
2019-04-22T03:07:55.960Z,99.90
2019-04-22T03:10:20.557Z,99.90
2019-04-22T03:12:41.812Z,99.90
2019-04-22T03:15:12.127Z,99.90
2019-04-22T03:17:47.431Z,99.90
2019-04-22T03:22:47.643Z,99.90
2019-04-22T03:27:42.737Z,99.90
2019-04-22T03:33:12.489Z,99.90
2019-04-22T03:47:53.578Z,99.90
2019-04-22T03:50:22.647Z,99.90
2019-04-22T03:52:47.161Z,99.90
2019-04-22T03:55:15.017Z,99.90
2019-04-22T04:00:30.830Z,99.90
2019-04-22T04:10:30.169Z,99.90
2019-04-22T04:15:21.157Z,99.90
2019-04-22T04:28:11.300Z,99.90
2019-04-22T04:30:26.482Z,99.90
2019-04-22T04:32:52.517Z,99.90
2019-04-22T04:40:29.214Z,99.90
2019-04-22T04:42:54.403Z,99.90
2019-04-22T04:53:02.614Z,99.90
2019-04-22T05:05:25.193Z,99.90
2019-04-22T05:15:19.271Z,99.90
2019-04-22T05:20:29.366Z,99.90
2019-04-22T05:30:23.422Z,99.90
2019-04-22T05:32:42.976Z,99.90
2019-04-22T05:35:20.387Z,99.90
2019-04-22T05:37:45.844Z,99.90
2019-04-22T05:40:20.149Z,99.90
2019-04-22T05:42:46.203Z,99.90
2019-04-22T05:45:17.851Z,99.90
2019-04-22T05:47:46.309Z,99.90
2019-04-22T05:50:13.010Z,99.90
2019-04-22T05:52:54.381Z,99.90
2019-04-22T05:55:22.437Z,99.90
2019-04-22T05:57:51.197Z,99.90
2019-04-22T06:00:36.928Z,99.90
2019-04-22T06:05:24.948Z,99.90
2019-04-22T06:07:53.370Z,99.90
2019-04-22T06:10:41.131Z,99.90
2019-04-22T06:12:48.028Z,99.90
2019-04-22T06:15:24.215Z,99.90
2019-04-22T06:18:05.611Z,99.90
2019-04-22T06:20:25.542Z,99.90
2019-04-22T06:22:58.471Z,99.90
2019-04-22T06:25:27.779Z,99.90
2019-04-22T06:27:57.509Z,99.90
2019-04-22T06:30:29.103Z,99.90
2019-04-22T06:32:53.801Z,99.90
2019-04-22T06:35:33.298Z,99.90
2019-04-22T06:38:18.901Z,99.90
2019-04-22T06:40:27.510Z,99.90
2019-04-22T06:42:58.043Z,99.90
2019-04-22T06:45:24.578Z,99.90
2019-04-22T06:48:02.335Z,99.90
2019-04-22T06:50:33.922Z,99.90
2019-04-22T06:52:57.217Z,99.90
2019-04-22T06:55:33.007Z,99.90
2019-04-22T06:57:59.829Z,99.90
2019-04-22T07:03:24.109Z,99.90
2019-04-22T07:05:28.517Z,99.90
2019-04-22T07:08:04.145Z,99.90
2019-04-22T07:10:40.463Z,99.90
2019-04-22T07:12:53.888Z,99.90
2019-04-22T07:15:46.364Z,99.90
2019-04-22T07:18:04.110Z,99.90
2019-04-22T07:20:33.347Z,99.90
2019-04-22T07:23:06.700Z,99.90
2019-04-22T07:28:05.177Z,99.90
2019-04-22T07:30:35.048Z,99.90
2019-04-22T07:35:36.539Z,99.90
2019-04-22T07:38:07.858Z,99.90
2019-04-22T07:40:40.362Z,99.90
2019-04-22T07:43:04.302Z,99.90
2019-04-22T07:45:38.262Z,99.90
2019-04-22T07:48:18.854Z,99.90
2019-04-22T07:50:50.658Z,99.90
2019-04-22T07:53:08.487Z,99.90
2019-04-22T07:55:43.398Z,99.90
2019-04-22T07:58:15.540Z,99.90
2019-04-22T08:03:11.751Z,99.90
2019-04-22T08:05:45.887Z,99.90
2019-04-22T08:08:13.190Z,99.90
2019-04-22T08:10:43.893Z,99.90
2019-04-22T08:13:04.904Z,99.90
2019-04-22T08:15:42.031Z,99.90
2019-04-22T08:23:09.155Z,99.90
2019-04-22T08:25:38.843Z,99.90
2019-04-22T08:28:10.655Z,99.90
2019-04-22T08:30:41.436Z,99.90
2019-04-22T08:33:16.002Z,99.90
2019-04-22T08:38:14.929Z,99.90
2019-04-22T08:40:47.207Z,99.90
2019-04-22T08:45:46.190Z,99.90
2019-04-22T08:48:11.093Z,99.90
2019-04-22T08:50:44.668Z,99.90
2019-04-22T08:53:19.666Z,99.90
2019-04-22T08:55:51.521Z,99.90
2019-04-22T08:58:21.410Z,99.90
2019-04-22T09:00:50.960Z,99.90
2019-04-22T09:03:11.059Z,99.90
2019-04-22T09:08:21.250Z,99.90
2019-04-22T09:10:46.837Z,99.90
2019-04-22T09:13:31.844Z,99.90
2019-04-22T09:15:45.103Z,99.90
2019-04-22T09:18:14.224Z,99.90
2019-04-22T09:20:53.449Z,99.90
2019-04-22T09:23:21.470Z,99.90
2019-04-22T09:25:46.773Z,99.90
2019-04-22T09:28:17.518Z,99.90
2019-04-22T09:30:47.030Z,99.90
2019-04-22T09:38:25.764Z,99.90
2019-04-22T09:40:48.461Z,99.90
2019-04-22T09:43:16.981Z,99.90
2019-04-22T09:45:43.374Z,99.90
2019-04-22T09:48:16.319Z,99.90
2019-04-22T09:53:14.811Z,99.90
2019-04-22T09:55:43.189Z,99.90
2019-04-22T09:58:16.578Z,99.90
2019-04-22T10:01:03.068Z,99.90
2019-04-22T10:03:22.176Z,99.90
2019-04-22T10:05:58.260Z,98.20
2019-04-22T10:08:34.052Z,97.30
2019-04-22T10:11:00.849Z,99.40
2019-04-22T10:13:32.019Z,96.40
2019-04-22T10:15:58.930Z,98.80
2019-04-22T10:18:25.825Z,96.50
2019-04-22T10:20:54.082Z,96.30
2019-04-22T10:23:25.395Z,95.60
2019-04-22T10:25:52.614Z,97.10
2019-04-22T10:28:23.405Z,98.30
2019-04-22T10:33:14.982Z,93.70
2019-04-22T10:35:30.662Z,92.60
2019-04-22T10:37:58.503Z,94.10
2019-04-22T10:40:36.311Z,92.00
2019-04-22T10:43:05.587Z,92.00
2019-04-22T10:45:34.468Z,90.90
2019-04-22T10:48:04.065Z,90.20
2019-04-22T10:50:43.167Z,84.40
2019-04-22T10:53:13.337Z,88.00
2019-04-22T10:55:44.907Z,89.00
2019-04-22T10:58:12.883Z,84.00
2019-04-22T11:00:42.071Z,90.40
2019-04-22T11:03:11.871Z,85.80
2019-04-22T11:05:42.130Z,87.10
2019-04-22T11:08:22.581Z,81.70
2019-04-22T11:10:56.372Z,83.30
2019-04-22T11:13:10.958Z,82.30
2019-04-22T11:15:40.477Z,80.10
2019-04-22T11:18:09.489Z,78.90
2019-04-22T11:20:39.771Z,75.90
2019-04-22T11:23:08.869Z,73.30
2019-04-22T11:25:37.567Z,72.20
2019-04-22T11:28:07.401Z,71.90
2019-04-22T11:30:36.733Z,68.20
2019-04-22T11:33:06.630Z,69.60
2019-04-22T11:35:35.274Z,61.30
2019-04-22T11:38:04.583Z,58.90
2019-04-22T11:40:38.441Z,64.70
2019-04-22T11:43:04.030Z,57.80
2019-04-22T11:45:33.395Z,56.70
2019-04-22T11:48:01.651Z,55.80
2019-04-22T11:50:31.659Z,56.10
2019-04-22T11:53:00.778Z,58.50
2019-04-22T11:55:30.721Z,57.80
2019-04-22T11:58:00.934Z,56.40
2019-04-22T12:00:32.781Z,58.30
2019-04-22T12:03:01.223Z,57.00
2019-04-22T12:05:29.984Z,55.80
2019-04-22T12:07:59.286Z,54.90
2019-04-22T12:10:36.677Z,53.80
2019-04-22T12:12:57.830Z,52.10
2019-04-22T12:15:26.772Z,51.50
2019-04-22T12:17:55.336Z,51.90
2019-04-22T12:20:25.379Z,52.20
2019-04-22T12:22:53.844Z,51.30
2019-04-22T12:25:32.304Z,51.00
2019-04-22T12:27:52.949Z,47.90
2019-04-22T12:30:21.457Z,50.30
2019-04-22T12:32:50.523Z,51.70
2019-04-22T12:35:19.851Z,48.80
2019-04-22T12:37:54.106Z,47.00
2019-04-22T12:40:30.111Z,48.20
2019-04-22T12:42:49.185Z,48.60
2019-04-22T12:45:18.356Z,49.30
2019-04-22T12:47:48.233Z,47.20
2019-04-22T12:50:24.107Z,47.50
2019-04-22T12:52:53.314Z,46.40
2019-04-22T12:55:25.839Z,48.00
2019-04-22T12:57:55.391Z,46.80
2019-04-22T13:00:26.636Z,45.90
2019-04-22T13:02:55.201Z,44.40
2019-04-22T13:05:25.086Z,44.20
2019-04-22T13:07:53.807Z,44.50
2019-04-22T13:10:22.210Z,43.50
2019-04-22T13:12:50.974Z,43.90
2019-04-22T13:15:20.075Z,44.60
2019-04-22T13:18:01.087Z,45.10
2019-04-22T13:20:20.312Z,43.40
2019-04-22T13:22:48.677Z,45.00
2019-04-22T13:25:17.649Z,43.90
2019-04-22T13:27:46.816Z,45.30
2019-04-22T13:30:16.492Z,44.90
2019-04-22T13:32:44.916Z,44.80
2019-04-22T13:35:13.238Z,45.20
2019-04-22T13:37:41.491Z,43.90
2019-04-22T13:40:10.906Z,45.60
2019-04-22T13:42:40.697Z,45.10
2019-04-22T13:45:09.783Z,45.30
2019-04-22T13:48:00.420Z,47.60
2019-04-22T13:53:26.178Z,44.90
2019-04-22T13:55:44.960Z,46.70
2019-04-22T13:57:58.379Z,43.40
2019-04-22T14:00:18.429Z,44.30
2019-04-22T14:02:52.701Z,43.60
2019-04-22T14:05:26.894Z,43.90
2019-04-22T14:07:57.578Z,43.60
2019-04-22T14:10:26.846Z,45.80
2019-04-22T14:12:56.776Z,44.90
2019-04-22T14:15:25.640Z,45.10
2019-04-22T14:17:54.692Z,45.20
2019-04-22T14:20:25.837Z,46.30
2019-04-22T14:22:54.664Z,49.00
2019-04-22T14:25:24.782Z,48.00
2019-04-22T14:28:01.246Z,48.30
2019-04-22T14:30:24.287Z,47.70
2019-04-22T14:32:54.076Z,48.70
2019-04-22T14:35:23.034Z,48.60
2019-04-22T14:37:52.245Z,48.30
2019-04-22T14:40:22.989Z,48.50
2019-04-22T14:43:05.936Z,48.90
2019-04-22T14:45:58.048Z,49.10
2019-04-22T14:48:22.669Z,49.30
2019-04-22T14:50:46.963Z,50.30
2019-04-22T14:53:19.559Z,49.90
2019-04-22T14:55:26.920Z,50.70
2019-04-22T14:57:55.046Z,50.30
2019-04-22T15:00:29.562Z,51.80
2019-04-22T15:02:59.612Z,52.10
2019-04-22T15:05:28.322Z,51.70
2019-04-22T15:07:57.203Z,52.80
2019-04-22T15:10:28.115Z,52.70
2019-04-22T15:12:58.769Z,53.70
2019-04-22T15:15:35.840Z,54.80
2019-04-22T15:18:21.991Z,55.70
2019-04-22T15:20:58.775Z,53.40
2019-04-22T15:23:28.349Z,54.50
2019-04-22T15:25:57.185Z,54.20
2019-04-22T15:28:25.478Z,54.70
2019-04-22T15:30:55.455Z,53.80
2019-04-22T15:33:25.633Z,54.70
2019-04-22T15:35:55.422Z,55.30
2019-04-22T15:38:24.396Z,54.30
2019-04-22T15:40:54.549Z,53.30
2019-04-22T15:43:27.006Z,53.40
2019-04-22T15:45:53.074Z,53.50
2019-04-22T15:48:21.347Z,53.20
2019-04-22T15:50:50.764Z,52.80
2019-04-22T15:53:20.073Z,53.40
2019-04-22T15:55:48.541Z,52.60
2019-04-22T15:58:17.599Z,52.80
2019-04-22T16:00:57.678Z,52.60
2019-04-22T16:03:16.440Z,52.40
2019-04-22T16:05:46.066Z,53.20
2019-04-22T16:08:15.077Z,53.00
2019-04-22T16:10:43.971Z,52.20
2019-04-22T16:13:20.164Z,53.40
2019-04-22T16:15:42.778Z,52.30
2019-04-22T16:18:13.411Z,52.30
2019-04-22T16:20:41.287Z,52.10
2019-04-22T16:23:13.044Z,52.50
2019-04-22T16:25:45.299Z,52.60
2019-04-22T16:28:15.275Z,54.00
2019-04-22T16:30:45.446Z,53.90
2019-04-22T16:33:15.177Z,53.40
2019-04-22T16:35:44.938Z,52.80
2019-04-22T16:38:14.922Z,52.90
2019-04-22T16:40:43.400Z,53.30
2019-04-22T16:43:13.514Z,53.30
2019-04-22T16:45:43.298Z,53.50
2019-04-22T16:48:11.764Z,53.40
2019-04-22T16:50:42.799Z,53.60
2019-04-22T16:53:10.268Z,53.70
2019-04-22T16:55:39.157Z,54.00
2019-04-22T16:58:07.601Z,54.00
2019-04-22T17:00:36.568Z,54.20
2019-04-22T17:03:18.892Z,53.90
2019-04-22T17:06:05.409Z,54.40
2019-04-22T17:08:34.848Z,55.00
2019-04-22T17:11:04.194Z,54.50
2019-04-22T17:13:34.211Z,54.40
2019-04-22T17:16:02.844Z,54.90
2019-04-22T17:18:33.157Z,54.50
2019-04-22T17:21:04.679Z,54.20
2019-04-22T17:23:31.753Z,54.50
2019-04-22T17:26:00.784Z,54.50
2019-04-22T17:28:29.555Z,54.30
2019-04-22T17:30:57.877Z,54.30
2019-04-22T17:33:26.464Z,55.00
2019-04-22T17:35:55.058Z,54.50
2019-04-22T17:38:30.170Z,54.80
2019-04-22T17:41:09.061Z,55.40
2019-04-22T17:43:53.823Z,55.10
2019-04-22T17:46:10.755Z,54.70
2019-04-22T17:48:57.551Z,55.10
2019-04-22T17:51:34.487Z,55.90
2019-04-22T17:54:02.586Z,56.00
2019-04-22T17:56:33.975Z,55.50
2019-04-22T17:59:02.715Z,55.10
2019-04-22T18:01:29.936Z,55.30
2019-04-22T18:03:47.593Z,55.60
2019-04-22T18:06:28.018Z,55.50
2019-04-22T18:09:02.197Z,56.60
2019-04-22T18:11:39.918Z,55.70
2019-04-22T18:14:16.169Z,56.50
2019-04-22T18:16:34.672Z,58.30
2019-04-22T18:19:01.126Z,56.20
2019-04-22T18:21:28.870Z,56.70
2019-04-22T18:23:52.891Z,57.80
2019-04-22T18:26:26.186Z,57.00
2019-04-22T18:29:00.893Z,57.30
2019-04-22T18:31:26.066Z,58.30
2019-04-22T18:33:54.533Z,58.30
2019-04-22T18:36:29.203Z,57.90
2019-04-22T18:39:04.297Z,58.80
2019-04-22T18:41:30.478Z,58.80
2019-04-22T18:44:06.303Z,58.00
2019-04-22T18:46:31.539Z,58.00
2019-04-22T18:49:03.376Z,57.90
2019-04-22T18:51:40.921Z,59.20
2019-04-22T18:54:11.847Z,59.50
2019-04-22T18:56:42.158Z,58.90
2019-04-22T18:59:07.688Z,59.20
2019-04-22T19:01:23.940Z,59.40
2019-04-22T19:04:01.358Z,59.70
2019-04-22T19:06:45.963Z,59.70
2019-04-22T19:09:15.343Z,58.90
2019-04-22T19:11:51.922Z,59.30
2019-04-22T19:14:37.236Z,59.20
2019-04-22T19:17:07.613Z,60.30
2019-04-22T19:21:43.307Z,59.40
2019-04-22T19:24:09.112Z,60.10
2019-04-22T19:26:58.722Z,60.40
2019-04-22T19:29:17.401Z,59.60
2019-04-22T19:31:45.876Z,59.30
2019-04-22T19:34:16.186Z,60.40
2019-04-22T19:36:46.933Z,59.80
2019-04-22T19:39:10.513Z,59.80
2019-04-22T19:41:49.073Z,61.90
2019-04-22T19:44:16.475Z,62.80
2019-04-22T19:46:52.924Z,60.90
2019-04-22T19:49:24.589Z,60.60
2019-04-22T19:51:52.432Z,60.70
2019-04-22T19:54:14.024Z,61.00
2019-04-22T19:56:38.791Z,60.40
2019-04-22T19:59:09.372Z,60.40
2019-04-22T20:01:48.638Z,61.30
2019-04-22T20:04:28.338Z,61.70
2019-04-22T20:07:11.236Z,60.90
2019-04-22T20:09:46.760Z,65.30
2019-04-22T20:12:11.748Z,61.90
2019-04-22T20:14:46.383Z,61.40
2019-04-22T20:17:08.027Z,61.60
2019-04-22T20:19:51.214Z,60.80
2019-04-22T20:22:12.883Z,61.60
2019-04-22T20:24:28.097Z,61.30
2019-04-22T20:27:13.627Z,60.50
2019-04-22T20:29:42.109Z,60.20
2019-04-22T20:32:12.001Z,60.60
2019-04-22T20:34:44.567Z,60.00
2019-04-22T20:37:15.162Z,60.70
2019-04-22T20:39:44.435Z,60.50
2019-04-22T20:42:23.917Z,60.90
2019-04-22T20:44:50.449Z,62.00
2019-04-22T20:47:09.011Z,63.10
2019-04-22T20:49:41.601Z,60.90
2019-04-22T20:52:27.813Z,59.60
2019-04-22T20:54:40.161Z,59.30
2019-04-22T20:57:09.805Z,59.50
2019-04-22T20:59:42.930Z,59.60
2019-04-22T21:02:07.966Z,59.80
2019-04-22T21:04:32.353Z,60.10
2019-04-22T21:07:09.107Z,59.50
2019-04-22T21:09:41.124Z,59.10
2019-04-22T21:12:05.099Z,59.40
2019-04-22T21:14:44.199Z,58.90
2019-04-22T21:17:13.826Z,59.80
2019-04-22T21:19:49.767Z,59.00
2019-04-22T21:22:16.010Z,58.60
2019-04-22T21:24:42.138Z,59.60
2019-04-22T21:27:13.829Z,59.20
2019-04-22T21:29:40.846Z,59.40
2019-04-22T21:32:15.616Z,59.10
2019-04-22T21:34:54.041Z,58.50
2019-04-22T21:37:20.827Z,58.40
2019-04-22T21:39:40.650Z,58.50
2019-04-22T21:42:14.285Z,58.90
2019-04-22T21:44:38.076Z,60.20
2019-04-22T21:49:54.704Z,59.40
2019-04-22T21:52:18.127Z,59.40
2019-04-22T21:54:47.037Z,58.90
2019-04-22T21:57:35.256Z,59.50
2019-04-22T22:00:03.543Z,59.70
2019-04-22T22:02:31.429Z,59.70
2019-04-22T22:04:54.798Z,59.30
2019-04-22T22:07:16.074Z,58.50
2019-04-22T22:10:02.170Z,58.40
2019-04-22T22:12:36.105Z,58.80
2019-04-22T22:15:04.082Z,59.00
2019-04-22T22:17:30.762Z,58.50
2019-04-22T22:20:01.959Z,58.70
2019-04-22T22:25:04.212Z,58.70
2019-04-22T22:27:34.236Z,59.80
2019-04-22T22:30:18.727Z,58.40
2019-04-22T22:32:35.052Z,58.60
2019-04-22T22:35:02.995Z,58.40
2019-04-22T22:37:21.889Z,60.90
2019-04-22T22:39:51.397Z,58.30
2019-04-22T22:42:19.073Z,59.30
2019-04-22T22:44:47.753Z,59.50
2019-04-22T22:47:34.267Z,58.70
2019-04-22T22:50:05.899Z,59.00
2019-04-22T22:52:53.160Z,59.40
2019-04-22T22:55:04.107Z,59.60
2019-04-22T22:57:35.195Z,59.60
2019-04-22T23:00:02.062Z,60.40
2019-04-22T23:02:34.161Z,60.10
2019-04-22T23:05:05.378Z,59.90
2019-04-22T23:07:37.399Z,59.90
2019-04-22T23:10:00.224Z,60.10
2019-04-22T23:12:40.550Z,60.00
2019-04-22T23:14:59.314Z,59.70
2019-04-22T23:17:16.943Z,59.90
2019-04-22T23:19:46.633Z,59.60
2019-04-22T23:22:17.873Z,60.40
2019-04-22T23:25:17.346Z,59.40
2019-04-22T23:27:40.696Z,59.60
2019-04-22T23:30:19.654Z,59.50
2019-04-22T23:32:58.151Z,59.50
2019-04-22T23:35:33.146Z,59.70
2019-04-22T23:38:01.325Z,60.80
2019-04-22T23:40:38.465Z,60.00
2019-04-22T23:43:09.063Z,59.70
2019-04-22T23:46:01.688Z,59.70
2019-04-22T23:48:22.589Z,60.90
2019-04-22T23:51:03.345Z,60.00
2019-04-22T23:53:57.901Z,59.80
2019-04-22T23:56:04.196Z,60.80
